Strona główna
METAR-TAF:

METAR-TAF

Lotnisko :

Port lotniczy Skopje

Skopje, Macedonia

Szerokość geograficzna: 41-58N, Długość geograficzna: 021-39E, wysokość: 238 m

Aktualna obserwacja pogody

Raport powstał 33 minut temu, godzina 15:00 UTC
Wiatr 5 kt od zachodnio-północny zachód
Temperatura 12°C
Wilgotność 71%
Ciśnienie 1012 hPa
Widzialność 10 km lub więcej
Rozproszone chmury na wysokości 5000 ft
Przerywane chmury na wysokości 8000 ft

METAR: LWSK 281500Z 30005KT 9999 SCT050 BKN080 12/07 Q1012 NOSIG

czas: 16:33 (15:33 UTC)

Prognoza

Raport powstał 1 godzina i 3 minut temu, godzina 14:30 UTC
Prognoza ważna od 28 godzina 15 UTC do 29 godzina 15 UTC
Wiatr 2 kt z kierunków zmiennych
Widzialność 10 km lub więcej
Rozproszone chmury na wysokości 5000 ft
Przerywane chmury na wysokości 10000 ft

TAF: LWSK 281430Z 2815/2915 VRB02KT 9999 SCT050 BKN100

Obserwacja i prognoza pogody dla ponad 4000 lotnisk (raport METAR i TAF).

Dostępne stacje oznaczono żółtymi i czerwonymi punktami na mapie.

Najedź kursorem aby zobaczyć nazwę stacji.

Kliknij aby zobaczyć obserwacje i prognozy pogody.

Aby zmienić mapę: kliknij na zielony przycisk z czarnym krzyżykiem, aby powiększyć; na zielony przycisk z myślnikiem, aby pomniejszyć; na zielone strzałki, aby przejść do map sąsiednich.


METAR-TAF: